Time;durP1;ratioP1;P1;durP2;ratioP2;P2;SDS_P1;SDS_P2;PMS_P1;PMS_P2;Temp;Humidity;BMP_temperature;BMP_pressure;BME280_temperature;BME280_humidity;BME280_pressure;Samples;Min_cycle;Max_cycle;Signal;HPM_P1;HPM_P2
2022/10/29 00:02:24;;;;;;;18.50;5.03;;;;;;;23.50;47.10;102202.53;5072092;28;20131;-70
2022/10/29 00:04:49;;;;;;;14.35;5.55;;;;;;;23.67;46.21;102195.59;5058094;28;20032;-71
2022/10/29 00:07:14;;;;;;;15.65;5.20;;;;;;;24.13;44.98;102193.56;5049966;28;20037;-71
2022/10/29 00:09:40;;;;;;;18.48;5.63;;;;;;;23.82;46.31;102194.94;5057679;28;20496;-71
2022/10/29 00:12:06;;;;;;;17.83;6.40;;;;;;;24.04;45.98;102193.97;5063909;28;20388;-71
2022/10/29 00:14:31;;;;;;;23.35;6.47;;;;;;;23.88;46.22;102181.31;5070512;28;20032;-71
2022/10/29 00:16:57;;;;;;;18.70;6.38;;;;;;;24.38;45.03;102187.06;5070650;28;20051;-71
2022/10/29 00:19:22;;;;;;;14.63;5.45;;;;;;;23.55;46.66;102175.66;5068033;28;20485;-71
2022/10/29 00:21:50;;;;;;;18.67;5.88;;;;;;;23.78;46.67;102171.97;5030691;28;20120;-71
2022/10/29 00:24:16;;;;;;;15.88;5.80;;;;;;;23.98;46.12;102175.56;5030636;28;20363;-71
2022/10/29 00:26:41;;;;;;;16.85;5.72;;;;;;;24.30;45.16;102178.56;5046538;28;20499;-72
2022/10/29 00:29:07;;;;;;;18.98;5.78;;;;;;;24.39;45.27;102172.78;5054024;28;20032;-71
2022/10/29 00:31:32;;;;;;;13.80;6.25;;;;;;;24.33;45.30;102178.41;5069297;28;20032;-71
2022/10/29 00:33:58;;;;;;;14.13;5.30;;;;;;;23.91;46.04;102176.78;5069545;28;20020;-71
2022/10/29 00:36:26;;;;;;;22.48;6.10;;;;;;;24.32;45.21;102184.72;5061238;28;20454;-71
2022/10/29 00:38:52;;;;;;;12.35;5.60;;;;;;;24.31;44.84;102180.28;5053027;28;20115;-71
2022/10/29 00:41:20;;;;;;;12.63;5.28;;;;;;;24.06;45.21;102186.78;5052058;28;20120;-70
2022/10/29 00:43:49;;;;;;;19.52;5.53;;;;;;;24.46;44.34;102174.22;5050184;28;20017;-71
2022/10/29 00:46:26;;;;;;;14.30;5.40;;;;;;;24.30;44.32;102162.53;5048156;28;20086;-71
2022/10/29 00:48:55;;;;;;;13.23;5.22;;;;;;;24.08;44.84;102162.66;5048109;28;20055;-72
2022/10/29 00:51:21;;;;;;;13.30;5.65;;;;;;;23.63;45.46;102151.28;5041116;28;20025;-73
2022/10/29 00:53:58;;;;;;;15.80;5.75;;;;;;;24.12;44.56;102165.09;5065864;28;20122;-71
2022/10/29 00:56:26;;;;;;;14.98;5.82;;;;;;;24.19;44.81;102160.34;5049372;28;20036;-71
2022/10/29 00:58:52;;;;;;;10.60;5.50;;;;;;;24.06;45.04;102160.06;5053115;28;20485;-71
2022/10/29 01:01:17;;;;;;;20.88;6.40;;;;;;;23.82;45.67;102167.34;5070715;28;20111;-71
2022/10/29 01:03:42;;;;;;;11.43;5.70;;;;;;;23.77;45.25;102158.66;5066239;28;20028;-71
2022/10/29 01:06:08;;;;;;;15.10;5.45;;;;;;;23.90;45.20;102165.22;5049173;28;20036;-70
2022/10/29 01:08:33;;;;;;;10.63;4.93;;;;;;;23.71;45.38;102154.47;5046202;28;20044;-71
2022/10/29 01:11:11;;;;;;;19.13;5.50;;;;;;;23.67;45.52;102144.88;5071555;28;20035;-71
2022/10/29 01:13:55;;;;;;;12.65;5.15;;;;;;;23.49;45.39;102134.09;5074030;28;20029;-71
2022/10/29 01:16:30;;;;;;;10.63;4.88;;;;;;;23.41;45.69;102133.56;5071132;28;20041;-70
2022/10/29 01:19:25;;;;;;;12.13;5.40;;;;;;;23.38;46.04;102137.25;5039637;28;20131;-71
2022/10/29 01:22:34;;;;;;;10.55;5.50;;;;;;;23.27;46.08;102127.97;5063366;28;20452;-70
2022/10/29 01:25:09;;;;;;;13.48;5.57;;;;;;;23.43;45.72;102128.16;5038897;28;20043;-71
2022/10/29 01:27:50;;;;;;;13.07;5.70;;;;;;;23.58;45.58;102116.81;5053521;28;20054;-71
2022/10/29 01:30:22;;;;;;;18.13;6.88;;;;;;;23.59;44.92;102121.22;5052966;28;20037;-72
2022/10/29 01:33:13;;;;;;;19.00;6.07;;;;;;;23.40;46.08;102118.50;5065466;28;20459;-72
2022/10/29 01:35:48;;;;;;;18.75;6.53;;;;;;;22.51;47.77;102125.72;5052426;28;20040;-72
2022/10/29 01:38:38;;;;;;;13.57;5.40;;;;;;;22.51;47.11;102129.25;5051923;28;20501;-71
2022/10/29 01:41:19;;;;;;;13.20;5.70;;;;;;;23.42;45.47;102115.75;5052332;28;20036;-72
2022/10/29 01:44:00;;;;;;;13.20;5.05;;;;;;;23.40;45.66;102121.16;5051848;28;20111;-72
2022/10/29 01:46:54;;;;;;;16.27;5.32;;;;;;;23.21;46.04;102113.94;5068915;28;20086;-72
2022/10/29 01:49:37;;;;;;;11.70;5.32;;;;;;;23.20;45.81;102116.69;5049502;28;20067;-71
2022/10/29 01:52:05;;;;;;;8.60;4.57;;;;;;;23.17;46.01;102117.69;5052475;28;20031;-72
2022/10/29 01:54:30;;;;;;;11.52;4.20;;;;;;;23.12;45.76;102125.03;5048943;28;20045;-71
2022/10/29 01:56:58;;;;;;;11.65;4.18;;;;;;;23.39;45.13;102116.75;5050617;28;20035;-72
2022/10/29 01:59:27;;;;;;;12.02;4.18;;;;;;;23.01;46.25;102111.22;5050127;28;20036;-71
2022/10/29 02:02:26;;;;;;;13.45;4.13;;;;;;;23.06;45.89;102111.91;5051788;28;20281;-71
2022/10/29 02:05:26;;;;;;;8.20;4.00;;;;;;;23.23;45.43;102110.34;5048531;28;20060;-72
2022/10/29 02:07:59;;;;;;;9.65;3.97;;;;;;;23.23;45.85;102107.69;5053185;28;20449;-71
2022/10/29 02:10:28;;;;;;;8.32;4.25;;;;;;;23.31;45.08;102108.22;5052147;28;20103;-72
2022/10/29 02:12:54;;;;;;;7.53;3.90;;;;;;;23.52;44.74;102109.94;5050949;28;20025;-71
2022/10/29 02:15:19;;;;;;;7.43;4.05;;;;;;;23.22;45.06;102104.16;5052181;28;20059;-72
2022/10/29 02:17:45;;;;;;;9.10;4.45;;;;;;;23.43;44.78;102101.50;5054121;28;20056;-72
2022/10/29 02:20:12;;;;;;;9.80;4.63;;;;;;;23.34;44.76;102097.41;5052893;28;20108;-71
2022/10/29 02:22:38;;;;;;;11.27;4.72;;;;;;;23.20;44.88;102100.69;5053995;28;20029;-72
2022/10/29 02:25:06;;;;;;;14.45;5.65;;;;;;;23.21;45.32;102100.63;5054105;28;20500;-72
2022/10/29 02:27:32;;;;;;;10.13;5.75;;;;;;;23.24;45.86;102093.44;5050231;28;20037;-71
2022/10/29 02:29:58;;;;;;;13.25;6.13;;;;;;;23.47;45.14;102098.59;5051506;28;20477;-71
2022/10/29 02:32:23;;;;;;;13.30;6.50;;;;;;;23.35;45.69;102094.66;5052473;28;20036;-72
2022/10/29 02:34:49;;;;;;;15.55;6.20;;;;;;;23.44;45.46;102092.53;5061842;28;20096;-71
2022/10/29 02:37:14;;;;;;;14.57;7.03;;;;;;;23.16;46.45;102089.31;5053179;28;20044;-72
2022/10/29 02:39:40;;;;;;;14.35;6.90;;;;;;;23.49;45.45;102079.84;5052709;28;20370;-71
2022/10/29 02:42:05;;;;;;;15.18;7.80;;;;;;;23.36;46.03;102075.06;5051471;28;20067;-72
2022/10/29 02:44:30;;;;;;;53.55;9.85;;;;;;;23.78;44.70;102070.53;5050729;28;20033;-71
2022/10/29 02:46:56;;;;;;;17.08;8.15;;;;;;;23.49;45.13;102070.06;5051412;28;20552;-71
2022/10/29 02:49:21;;;;;;;14.57;6.95;;;;;;;23.58;45.04;102068.78;5052637;28;20037;-71
2022/10/29 02:51:47;;;;;;;12.07;7.50;;;;;;;23.54;45.28;102059.19;5052540;28;20033;-71
2022/10/29 02:54:12;;;;;;;12.70;7.05;;;;;;;23.43;45.81;102053.47;5061727;28;20102;-71
2022/10/29 02:56:37;;;;;;;20.55;8.18;;;;;;;23.31;46.15;102061.06;5072030;28;20035;-71
2022/10/29 02:59:03;;;;;;;19.30;7.80;;;;;;;22.93;47.35;102054.72;5064100;28;20043;-72
2022/10/29 03:01:28;;;;;;;12.25;7.93;;;;;;;23.60;45.22;102055.34;5050015;28;20035;-71
2022/10/29 03:03:53;;;;;;;17.40;8.35;;;;;;;22.85;48.14;102058.56;5058705;28;20032;-71
2022/10/29 03:06:19;;;;;;;14.27;7.68;;;;;;;23.53;46.04;102055.66;5072206;28;20036;-71
2022/10/29 03:08:45;;;;;;;13.80;7.40;;;;;;;23.33;46.48;102063.69;5071003;28;20387;-71
2022/10/29 03:11:11;;;;;;;13.30;8.10;;;;;;;23.73;45.09;102061.88;5066453;28;20029;-72
2022/10/29 03:13:37;;;;;;;16.35;8.32;;;;;;;23.81;45.28;102067.72;5049935;28;20044;-72
2022/10/29 03:16:03;;;;;;;12.75;7.53;;;;;;;23.80;45.24;102068.66;5066349;28;20029;-71
2022/10/29 03:18:29;;;;;;;10.93;7.10;;;;;;;23.92;44.74;102066.38;5050755;28;20037;-72
2022/10/29 03:20:54;;;;;;;12.48;7.35;;;;;;;24.11;44.50;102069.94;5051469;28;20465;-71
2022/10/29 03:23:20;;;;;;;11.45;6.47;;;;;;;24.12;44.88;102068.97;5055535;28;20024;-71
2022/10/29 03:25:53;;;;;;;8.95;6.05;;;;;;;24.20;44.02;102061.44;5062218;28;20463;-72
2022/10/29 03:28:20;;;;;;;;;;;;;;;24.14;44.31;102060.88;5052055;28;20086;-72
2022/10/29 03:30:45;;;;;;;10.77;5.88;;;;;;;23.76;45.27;102051.03;5047272;28;19912;-71
2022/10/29 03:33:10;;;;;;;9.82;5.72;;;;;;;23.69;45.33;102061.13;5049184;28;20036;-72
2022/10/29 03:35:36;;;;;;;10.55;6.15;;;;;;;24.30;44.49;102050.31;5051391;28;20067;-71
2022/10/29 03:38:01;;;;;;;9.38;5.68;;;;;;;24.32;43.95;102043.13;5048770;28;20116;-72
2022/10/29 03:40:26;;;;;;;9.98;5.60;;;;;;;24.21;44.27;102057.84;5048769;28;20769;-71
2022/10/29 03:42:51;;;;;;;8.65;5.90;;;;;;;24.48;43.58;102044.09;5043266;28;20029;-72
2022/10/29 03:45:17;;;;;;;11.82;5.38;;;;;;;23.62;45.06;102042.84;5057258;28;20111;-72
2022/10/29 03:47:42;;;;;;;10.70;6.50;;;;;;;24.07;44.49;102038.97;5072440;28;20032;-72
2022/10/29 03:50:08;;;;;;;8.65;5.47;;;;;;;23.91;45.07;102032.63;5086827;28;20468;-71
2022/10/29 03:52:33;;;;;;;10.68;5.68;;;;;;;23.98;44.82;102039.41;5050542;28;20509;-72
2022/10/29 03:54:59;;;;;;;11.07;6.55;;;;;;;24.14;44.79;102039.50;5069462;28;20052;-72
2022/10/29 03:57:24;;;;;;;14.98;6.57;;;;;;;24.35;43.93;102033.13;5049802;28;20103;-71
2022/10/29 03:59:49;;;;;;;9.38;5.78;;;;;;;24.12;44.65;102036.91;5050849;28;20460;-71
2022/10/29 04:02:15;;;;;;;12.48;6.28;;;;;;;24.12;44.82;102034.25;5059012;28;20064;-71
2022/10/29 04:04:40;;;;;;;10.65;6.70;;;;;;;23.85;45.20;102029.28;5053702;28;20095;-71
2022/10/29 04:07:06;;;;;;;14.13;6.75;;;;;;;24.23;44.79;102023.03;5047217;28;20017;-72
2022/10/29 04:09:31;;;;;;;12.68;7.00;;;;;;;24.20;44.72;102024.06;5078407;28;20373;-71
2022/10/29 04:11:56;;;;;;;12.30;6.68;;;;;;;24.22;44.71;102032.88;5069905;28;20025;-72
2022/10/29 04:14:22;;;;;;;14.27;7.20;;;;;;;24.21;44.82;102031.13;5065988;28;20496;-72
2022/10/29 04:16:47;;;;;;;14.20;7.00;;;;;;;24.59;44.09;102034.66;5050610;28;20047;-71
2022/10/29 04:19:12;;;;;;;16.40;9.05;;;;;;;23.57;46.56;102028.81;5050587;28;20025;-72
2022/10/29 04:21:37;;;;;;;13.57;6.95;;;;;;;24.07;45.26;102033.63;5054174;28;20024;-72
2022/10/29 04:24:03;;;;;;;17.67;7.03;;;;;;;23.53;46.34;102023.63;5050460;28;20485;-71
2022/10/29 04:26:28;;;;;;;13.65;7.20;;;;;;;23.83;45.67;102022.28;5049834;28;20044;-72
2022/10/29 04:28:54;;;;;;;12.93;7.03;;;;;;;23.90;45.52;102012.19;5042233;28;20470;-72
2022/10/29 04:31:19;;;;;;;11.07;7.00;;;;;;;24.08;44.76;102023.78;5046811;28;20035;-72
2022/10/29 04:33:45;;;;;;;19.25;7.75;;;;;;;24.24;44.59;102026.59;5046262;28;20492;-71
2022/10/29 04:36:10;;;;;;;13.65;6.70;;;;;;;24.05;44.86;102022.13;5043630;28;20088;-71
2022/10/29 04:38:36;;;;;;;10.82;6.55;;;;;;;24.23;44.91;102017.69;5048216;28;20473;-71
2022/10/29 04:41:03;;;;;;;12.00;7.30;;;;;;;24.45;44.14;102014.81;5049473;28;20491;-71
2022/10/29 04:43:29;;;;;;;17.63;7.10;;;;;;;24.43;44.24;102014.06;5050423;28;20055;-71
2022/10/29 04:45:56;;;;;;;15.38;6.88;;;;;;;24.29;44.65;102017.41;5053423;28;20032;-71
2022/10/29 04:48:23;;;;;;;17.77;7.60;;;;;;;24.37;44.64;102009.00;5053912;28;20068;-71
2022/10/29 04:50:49;;;;;;;10.50;6.38;;;;;;;24.15;44.33;102015.44;5066257;28;20400;-71
2022/10/29 04:53:15;;;;;;;13.77;6.95;;;;;;;24.14;44.92;102019.03;5071619;28;20020;-72
2022/10/29 04:55:40;;;;;;;13.63;7.18;;;;;;;24.50;43.80;102014.63;5055352;28;20061;-72
2022/10/29 04:58:10;;;;;;;16.83;7.38;;;;;;;24.58;43.45;102015.09;5057427;28;20077;-72
2022/10/29 05:00:36;;;;;;;14.38;7.95;;;;;;;23.46;45.90;102010.63;5054358;28;20512;-71
2022/10/29 05:03:01;;;;;;;15.85;7.25;;;;;;;23.23;46.57;102017.00;5054567;28;20041;-71
2022/10/29 05:05:26;;;;;;;16.77;7.65;;;;;;;23.64;45.56;102014.25;5053143;28;20037;-71
2022/10/29 05:07:59;;;;;;;16.73;7.90;;;;;;;22.94;47.43;102003.13;5051573;28;20052;-71
2022/10/29 05:10:27;;;;;;;14.88;7.80;;;;;;;22.98;47.94;101986.06;5062445;28;20059;-72
2022/10/29 05:13:09;;;;;;;18.50;8.82;;;;;;;23.86;45.79;101982.97;5054004;28;20029;-72
2022/10/29 05:15:35;;;;;;;16.95;8.23;;;;;;;23.79;46.32;101989.50;5052782;28;20091;-72
2022/10/29 05:18:01;;;;;;;14.55;7.93;;;;;;;24.31;44.39;101983.47;5049858;28;20495;-73
2022/10/29 05:20:27;;;;;;;19.17;8.38;;;;;;;24.45;44.29;101980.09;5053627;28;20068;-72
2022/10/29 05:23:05;;;;;;;17.67;8.95;;;;;;;24.39;44.45;101972.41;5052555;28;20104;-72
2022/10/29 05:25:31;;;;;;;14.63;8.40;;;;;;;24.57;43.81;101957.22;5042421;28;20120;-72
2022/10/29 05:28:11;;;;;;;20.08;9.05;;;;;;;23.95;45.44;101965.66;5063840;28;20029;-72
2022/10/29 05:30:37;;;;;;;16.52;8.32;;;;;;;24.56;44.53;101968.84;5072729;28;20024;-71
2022/10/29 05:33:10;;;;;;;20.25;9.57;;;;;;;24.27;44.72;101963.19;5074714;28;20028;-72
2022/10/29 05:35:36;;;;;;;14.63;7.97;;;;;;;24.39;44.96;101959.91;5070959;28;20037;-72
2022/10/29 05:38:02;;;;;;;15.80;8.07;;;;;;;24.70;43.73;101962.81;5052721;28;20029;-72
2022/10/29 05:40:28;;;;;;;16.67;9.13;;;;;;;24.03;44.90;101967.97;5052188;28;20021;-72
2022/10/29 05:42:54;;;;;;;19.20;8.38;;;;;;;24.72;43.82;101966.31;5049765;28;20495;-72
2022/10/29 05:45:19;;;;;;;12.43;8.30;;;;;;;24.65;43.69;101965.75;5052169;28;20404;-72
2022/10/29 05:47:45;;;;;;;14.52;8.60;;;;;;;24.71;43.81;101965.41;5052496;28;20048;-72
2022/10/29 05:50:11;;;;;;;13.30;7.97;;;;;;;24.41;43.88;101965.16;5050530;28;20029;-72
2022/10/29 05:52:37;;;;;;;19.25;9.85;;;;;;;24.25;44.57;101974.88;5051134;28;20036;-72
2022/10/29 05:55:03;;;;;;;15.23;8.68;;;;;;;24.38;44.43;101986.69;5049025;28;20049;-72
2022/10/29 05:57:28;;;;;;;14.50;8.88;;;;;;;23.91;45.23;101995.25;5052833;28;20037;-71
2022/10/29 05:59:53;;;;;;;19.55;8.50;;;;;;;24.08;45.18;101981.91;5052121;28;20029;-72
2022/10/29 06:02:19;;;;;;;20.30;9.55;;;;;;;24.80;43.56;101969.44;5052538;28;20028;-72
2022/10/29 06:04:44;;;;;;;16.27;8.60;;;;;;;25.19;42.93;101976.28;5051635;28;20393;-72
2022/10/29 06:07:10;;;;;;;14.73;10.02;;;;;;;24.62;43.74;101976.59;5053026;28;20021;-72
2022/10/29 06:09:35;;;;;;;15.48;10.27;;;;;;;24.08;44.82;101979.25;5052323;28;20116;-72
2022/10/29 06:12:00;;;;;;;16.23;10.23;;;;;;;23.21;47.06;101969.94;5050649;28;20120;-72
2022/10/29 06:14:26;;;;;;;23.00;10.20;;;;;;;23.94;46.19;101960.38;5056190;28;20127;-72
2022/10/29 06:16:51;;;;;;;17.33;10.40;;;;;;;24.58;44.32;101963.44;5072729;28;20036;-72
2022/10/29 06:19:16;;;;;;;20.25;10.13;;;;;;;24.65;44.29;101963.06;5055362;28;20056;-72
2022/10/29 06:21:42;;;;;;;18.90;9.80;;;;;;;24.28;45.27;101956.06;5051758;28;20028;-72
2022/10/29 06:24:07;;;;;;;19.75;11.70;;;;;;;24.41;44.76;101957.13;5074334;28;20017;-72
2022/10/29 06:26:32;;;;;;;21.45;11.35;;;;;;;24.77;43.83;101953.56;5060849;28;20041;-72
2022/10/29 06:28:59;;;;;;;20.15;10.23;;;;;;;24.52;44.52;101946.78;5056377;28;20094;-72
2022/10/29 06:31:24;;;;;;;25.83;11.57;;;;;;;24.33;45.26;101943.31;5048083;28;20025;-72
2022/10/29 06:33:50;;;;;;;19.10;11.05;;;;;;;24.59;44.54;101952.66;5047979;28;20031;-72
2022/10/29 06:36:15;;;;;;;17.70;10.38;;;;;;;24.54;44.84;101952.91;5055306;28;20484;-72
2022/10/29 06:38:40;;;;;;;19.88;11.57;;;;;;;24.03;46.42;101949.25;5048009;28;20235;-72
2022/10/29 06:41:06;;;;;;;19.40;9.98;;;;;;;24.36;45.77;101938.69;5047778;28;20226;-72
2022/10/29 06:43:31;;;;;;;18.45;10.05;;;;;;;24.21;45.60;101945.66;5050411;28;20020;-73
2022/10/29 06:45:57;;;;;;;23.95;11.57;;;;;;;23.91;46.26;101941.84;5051564;28;20066;-72
2022/10/29 06:48:22;;;;;;;26.10;11.35;;;;;;;24.47;45.11;101934.59;5050930;28;20575;-72
2022/10/29 06:50:48;;;;;;;25.00;11.95;;;;;;;24.69;44.99;101942.41;5048235;28;20511;-72
2022/10/29 06:53:14;;;;;;;23.10;11.85;;;;;;;24.32;45.37;101941.59;5048993;28;20123;-72
2022/10/29 06:55:40;;;;;;;23.67;12.30;;;;;;;24.55;45.56;101937.72;5049398;28;20044;-73
2022/10/29 06:58:16;;;;;;;19.50;11.05;;;;;;;24.30;46.25;101932.78;5051775;28;20035;-72
2022/10/29 07:00:42;;;;;;;25.13;11.40;;;;;;;24.38;45.94;101930.59;5050979;28;20037;-73
2022/10/29 07:03:11;;;;;;;21.65;11.05;;;;;;;24.48;45.71;101926.50;5063622;28;20033;-71
2022/10/29 07:05:37;;;;;;;27.90;12.30;;;;;;;24.85;44.87;101935.31;5052093;28;20025;-71
2022/10/29 07:08:02;;;;;;;23.55;11.63;;;;;;;25.01;44.12;101934.47;5049770;28;20021;-72
2022/10/29 07:10:30;;;;;;;20.02;12.23;;;;;;;25.12;44.71;101936.59;5050025;28;20017;-72
2022/10/29 07:12:56;;;;;;;18.95;12.35;;;;;;;24.87;45.00;101938.75;5049152;28;20048;-72
2022/10/29 07:15:21;;;;;;;27.10;12.85;;;;;;;24.58;45.70;101936.69;5045820;28;20067;-72
2022/10/29 07:18:01;;;;;;;26.63;11.80;;;;;;;25.03;44.98;101940.59;5052824;28;20119;-73
2022/10/29 07:20:29;;;;;;;26.83;12.85;;;;;;;24.59;46.07;101938.44;5052632;28;20031;-73
2022/10/29 07:22:56;;;;;;;30.15;13.02;;;;;;;24.55;46.38;101943.94;5050445;28;20075;-72
2022/10/29 07:25:22;;;;;;;24.25;12.32;;;;;;;24.30;47.20;101941.66;5051273;28;20035;-72
2022/10/29 07:27:47;;;;;;;29.15;13.98;;;;;;;24.30;47.45;101938.13;5051273;28;20028;-73
2022/10/29 07:30:13;;;;;;;29.95;14.48;;;;;;;25.07;45.62;101944.84;5050406;28;20443;-73
2022/10/29 07:32:38;;;;;;;32.90;14.68;;;;;;;25.12;45.38;101932.09;5052509;28;20053;-73
2022/10/29 07:35:04;;;;;;;29.08;14.95;;;;;;;24.26;48.81;101936.56;5067030;28;20477;-73
2022/10/29 07:37:29;;;;;;;24.13;14.07;;;;;;;24.72;47.65;101928.88;5052507;28;20021;-73
2022/10/29 07:39:54;;;;;;;24.08;14.35;;;;;;;24.09;48.88;101934.75;5067910;28;20136;-73
2022/10/29 07:42:20;;;;;;;28.48;15.27;;;;;;;25.11;46.34;101935.69;5051731;28;20475;-73
2022/10/29 07:44:45;;;;;;;27.70;13.32;;;;;;;24.67;47.67;101925.56;5050697;28;20366;-73
2022/10/29 07:47:11;;;;;;;27.52;13.52;;;;;;;24.32;48.56;101904.19;5051159;28;20025;-73
2022/10/29 07:49:36;;;;;;;25.75;13.35;;;;;;;24.73;48.19;101903.88;5050339;28;20040;-73
2022/10/29 07:52:02;;;;;;;25.90;13.85;;;;;;;23.92;49.33;101908.84;5051105;28;20031;-73
2022/10/29 07:54:27;;;;;;;26.65;13.77;;;;;;;24.89;48.04;101910.13;5050702;28;20408;-73
2022/10/29 07:56:53;;;;;;;24.63;14.07;;;;;;;24.75;48.42;101907.31;5066597;28;20194;-73
2022/10/29 07:59:19;;;;;;;27.00;16.08;;;;;;;24.70;48.41;101914.72;5050885;28;20469;-73
2022/10/29 08:01:45;;;;;;;28.90;14.52;;;;;;;25.27;47.38;101918.84;5052176;28;20036;-73
2022/10/29 08:04:11;;;;;;;25.55;14.35;;;;;;;25.18;47.38;101921.06;5050024;28;20495;-73
2022/10/29 08:06:36;;;;;;;31.20;15.23;;;;;;;25.42;47.36;101917.13;5050733;28;20060;-73
2022/10/29 08:09:02;;;;;;;31.13;14.95;;;;;;;25.99;45.63;101919.25;5050716;28;20462;-72
2022/10/29 08:11:31;;;;;;;29.42;14.63;;;;;;;25.88;46.08;101910.03;5049865;28;20556;-73
2022/10/29 08:13:56;;;;;;;28.67;14.63;;;;;;;25.71;46.56;101918.19;5050539;28;20031;-73
2022/10/29 08:16:21;;;;;;;25.25;14.65;;;;;;;25.29;48.28;101906.22;5050676;28;20455;-73
2022/10/29 08:18:47;;;;;;;33.00;16.13;;;;;;;25.29;47.97;101906.22;5051076;28;20499;-73
2022/10/29 08:21:12;;;;;;;24.58;13.93;;;;;;;26.05;46.62;101910.91;5050810;28;20109;-73
2022/10/29 08:23:37;;;;;;;31.83;14.90;;;;;;;26.82;44.59;101918.81;5050279;28;20551;-72
2022/10/29 08:26:03;;;;;;;30.60;14.07;;;;;;;25.83;46.65;101933.53;5049737;28;20028;-73
2022/10/29 08:28:28;;;;;;;30.88;13.43;;;;;;;25.43;47.39;101934.91;5051793;28;20033;-73
2022/10/29 08:30:54;;;;;;;29.55;15.40;;;;;;;26.61;45.28;101939.75;5050676;28;20032;-72
2022/10/29 08:33:19;;;;;;;25.25;14.82;;;;;;;26.71;44.38;101943.66;5049286;28;20504;-73
2022/10/29 08:35:45;;;;;;;26.20;13.88;;;;;;;26.70;44.78;101923.16;5050464;28;20029;-73
2022/10/29 08:38:10;;;;;;;26.60;14.07;;;;;;;26.80;44.66;101913.56;5051655;28;20040;-73
2022/10/29 08:41:03;;;;;;;27.02;14.13;;;;;;;25.94;46.45;101907.94;5049759;28;20079;-73
2022/10/29 08:43:53;;;;;;;32.75;13.73;;;;;;;25.91;46.89;101907.19;5051342;28;20032;-73
2022/10/29 08:46:51;;;;;;;29.60;14.50;;;;;;;26.89;44.97;101918.34;5050910;28;20481;-71
2022/10/29 08:49:20;;;;;;;28.58;14.60;;;;;;;26.71;45.35;101922.19;5049636;28;20387;-71
2022/10/29 08:52:00;;;;;;;29.55;13.23;;;;;;;26.75;45.63;101913.84;5050253;28;20473;-71
2022/10/29 08:54:29;;;;;;;32.03;14.40;;;;;;;26.50;46.31;101905.56;5066010;28;20037;-71
2022/10/29 08:56:57;;;;;;;28.13;14.90;;;;;;;26.95;45.08;101894.81;5067025;28;20044;-71
2022/10/29 08:59:24;;;;;;;30.23;14.05;;;;;;;26.46;46.12;101899.53;5051337;28;20432;-70
2022/10/29 09:01:53;;;;;;;27.90;14.30;;;;;;;26.84;45.11;101892.78;5051259;28;20122;-71
2022/10/29 09:04:30;;;;;;;25.98;14.80;;;;;;;27.19;44.63;101893.25;5049973;28;20032;-71
2022/10/29 09:07:34;;;;;;;26.30;13.82;;;;;;;26.79;45.84;101882.38;5050748;28;20039;-71
2022/10/29 09:10:22;;;;;;;21.85;13.27;;;;;;;27.80;43.43;101882.16;5009416;28;20034;-71
2022/10/29 09:13:25;;;;;;;24.85;13.25;;;;;;;27.37;44.65;101901.13;5001548;28;20033;-72
2022/10/29 09:16:15;;;;;;;24.40;12.20;;;;;;;27.12;44.78;101897.28;5041311;28;20095;-72
2022/10/29 09:18:54;;;;;;;29.52;14.80;;;;;;;26.89;45.31;101886.19;5051370;28;20032;-71
2022/10/29 09:21:22;;;;;;;27.85;13.98;;;;;;;26.82;45.27;101868.75;5049324;28;20025;-71
2022/10/29 09:24:07;;;;;;;25.50;12.80;;;;;;;26.97;45.21;101871.41;5066517;28;20035;-72
2022/10/29 09:26:52;;;;;;;25.20;12.95;;;;;;;27.47;44.42;101859.28;5051102;28;20033;-72
2022/10/29 09:29:34;;;;;;;24.60;13.90;;;;;;;27.37;45.27;101858.16;5065827;28;20029;-72
2022/10/29 09:32:08;;;;;;;26.90;13.50;;;;;;;27.18;44.94;101827.13;5069588;28;20074;-72
2022/10/29 09:34:47;;;;;;;26.25;12.45;;;;;;;26.87;45.84;101831.78;5053117;28;20292;-72
2022/10/29 09:37:17;;;;;;;26.00;12.93;;;;;;;27.08;45.61;101832.22;5053454;28;20035;-74
2022/10/29 09:39:45;;;;;;;24.05;12.73;;;;;;;26.55;46.31;101842.66;5053498;28;20032;-73
2022/10/29 09:42:20;;;;;;;20.88;12.80;;;;;;;27.16;44.57;101852.31;5054085;28;20025;-73
2022/10/29 09:44:56;;;;;;;24.33;13.38;;;;;;;26.80;45.71;101849.19;5069785;28;20029;-73
2022/10/29 09:47:45;;;;;;;27.85;13.50;;;;;;;27.38;44.80;101844.66;5054715;28;20024;-74
2022/10/29 09:50:19;;;;;;;26.77;13.88;;;;;;;27.65;44.88;101850.97;5052611;28;20047;-73
2022/10/29 09:52:47;;;;;;;28.73;12.75;;;;;;;27.58;45.07;101835.25;5069752;28;20024;-73
2022/10/29 09:55:24;;;;;;;32.55;12.57;;;;;;;26.84;46.54;101840.00;5052964;28;20048;-73
2022/10/29 09:57:50;;;;;;;26.13;13.15;;;;;;;27.44;44.94;101832.63;5053703;28;20025;-73
2022/10/29 10:00:22;;;;;;;25.73;12.75;;;;;;;27.14;46.07;101846.22;5054434;28;20484;-73
2022/10/29 10:02:56;;;;;;;25.25;12.15;;;;;;;27.90;44.25;101834.94;5069122;28;20067;-74
2022/10/29 10:05:30;;;;;;;25.23;11.45;;;;;;;27.49;44.68;101835.00;5052807;28;20477;-73
2022/10/29 10:08:08;;;;;;;30.73;11.60;;;;;;;27.06;45.71;101844.00;5053143;28;20020;-73
2022/10/29 10:10:47;;;;;;;29.83;11.25;;;;;;;26.79;46.61;101835.91;5052267;28;20035;-73
2022/10/29 10:13:13;;;;;;;24.27;12.02;;;;;;;27.35;45.60;101827.84;5069628;28;20075;-73
2022/10/29 10:15:48;;;;;;;24.33;11.93;;;;;;;27.19;45.70;101818.13;5052778;28;20108;-74
2022/10/29 10:18:26;;;;;;;24.17;12.80;;;;;;;26.40;47.66;101822.16;5052012;28;20032;-73
2022/10/29 10:21:05;;;;;;;26.92;11.70;;;;;;;26.20;47.69;101813.53;5052789;28;20025;-73
2022/10/29 10:23:48;;;;;;;24.48;12.48;;;;;;;26.92;46.78;101805.50;5054103;28;20021;-73
2022/10/29 10:26:44;;;;;;;23.33;12.25;;;;;;;26.89;46.26;101805.72;5069031;28;20120;-73
2022/10/29 10:29:18;;;;;;;25.75;11.40;;;;;;;26.84;46.69;101810.50;5053919;28;20470;-73
2022/10/29 10:31:46;;;;;;;25.50;12.23;;;;;;;26.58;47.28;101794.25;5053250;28;20095;-73
2022/10/29 10:34:23;;;;;;;26.75;11.95;;;;;;;28.00;44.60;101802.97;5052451;28;20028;-73
2022/10/29 10:37:01;;;;;;;25.25;11.73;;;;;;;28.37;43.31;101812.97;5052556;28;20420;-73
2022/10/29 10:39:30;;;;;;;27.17;11.30;;;;;;;28.85;42.40;101799.72;5068552;28;20040;-73
2022/10/29 10:41:59;;;;;;;18.83;11.00;;;;;;;27.71;44.46;101813.84;5051222;28;20059;-73
2022/10/29 10:44:26;;;;;;;29.13;13.30;;;;;;;27.16;46.15;101818.31;5053521;28;20021;-73
2022/10/29 10:46:54;;;;;;;21.10;11.07;;;;;;;27.71;45.26;101829.06;5051551;28;20021;-73
2022/10/29 10:49:31;;;;;;;26.58;11.00;;;;;;;27.24;46.62;101832.09;5052311;28;20063;-73
2022/10/29 10:51:58;;;;;;;21.60;10.05;;;;;;;26.68;46.87;101839.22;5053213;28;20065;-73
2022/10/29 10:54:43;;;;;;;22.52;12.20;;;;;;;28.22;44.18;101828.31;5053180;28;20045;-73
2022/10/29 10:57:11;;;;;;;21.90;9.93;;;;;;;28.59;43.27;101826.63;5053254;28;20037;-73
2022/10/29 10:59:54;;;;;;;17.52;9.75;;;;;;;27.54;45.11;101817.63;5067942;28;20033;-73
2022/10/29 11:02:32;;;;;;;26.60;9.32;;;;;;;27.87;44.58;101818.16;5068948;28;20021;-73
2022/10/29 11:05:08;;;;;;;23.88;9.82;;;;;;;27.91;45.01;101804.41;5052938;28;20029;-73
2022/10/29 11:07:38;;;;;;;23.48;8.48;;;;;;;28.24;43.72;101795.00;5051247;28;20021;-73
2022/10/29 11:10:06;;;;;;;17.98;9.50;;;;;;;28.07;43.98;101798.03;5051786;28;20040;-73
2022/10/29 11:12:39;;;;;;;25.20;9.50;;;;;;;27.83;44.15;101801.38;5053115;28;20033;-73
2022/10/29 11:15:10;;;;;;;;;;;;;;;28.89;42.62;101795.81;5051200;28;20025;-73
2022/10/29 11:17:46;;;;;;;21.95;8.70;;;;;;;28.46;43.28;101790.81;5068421;28;19947;-73
2022/10/29 11:20:20;;;;;;;20.63;8.57;;;;;;;28.77;42.68;101791.34;5050731;28;20138;-73
2022/10/29 11:23:01;;;;;;;15.38;9.13;;;;;;;28.38;43.51;101795.88;5051804;28;20116;-73
2022/10/29 11:25:34;;;;;;;23.35;9.13;;;;;;;29.25;41.92;101786.03;5051410;28;20029;-73
2022/10/29 11:28:21;;;;;;;24.42;8.68;;;;;;;30.21;40.76;101789.56;5050749;28;20025;-73